createdAt,value
2023-03-01T00:01:47.876Z,16.13
2023-03-01T00:04:16.409Z,16.63
2023-03-01T00:06:46.969Z,16.23
2023-03-01T00:09:15.147Z,16.63
2023-03-01T00:11:43.268Z,15.75
2023-03-01T00:14:12.708Z,16.00
2023-03-01T00:16:45.255Z,16.05
2023-03-01T00:19:15.043Z,14.93
2023-03-01T00:21:42.934Z,14.15
2023-03-01T00:24:11.804Z,13.63
2023-03-01T00:26:39.937Z,13.48
2023-03-01T00:29:08.257Z,13.05
2023-03-01T00:31:36.949Z,13.10
2023-03-01T00:34:07.154Z,12.13
2023-03-01T00:36:36.754Z,12.02
2023-03-01T00:39:06.296Z,12.48
2023-03-01T00:41:35.537Z,11.75
2023-03-01T00:44:03.546Z,11.32
2023-03-01T00:46:32.587Z,11.32
2023-03-01T00:49:03.246Z,11.38
2023-03-01T00:51:33.219Z,10.15
2023-03-01T00:54:03.721Z,10.45
2023-03-01T00:56:33.278Z,9.88
2023-03-01T00:59:01.373Z,10.15
2023-03-01T01:01:31.562Z,10.52
2023-03-01T01:04:01.734Z,10.68
2023-03-01T01:06:32.355Z,10.18
2023-03-01T01:09:02.190Z,9.90
2023-03-01T01:11:31.764Z,10.30
2023-03-01T01:16:30.337Z,11.35
2023-03-01T01:21:27.949Z,10.75
2023-03-01T01:23:56.167Z,10.73
2023-03-01T01:26:27.275Z,10.27
2023-03-01T01:28:55.797Z,10.00
2023-03-01T01:31:25.203Z,10.10
2023-03-01T01:33:54.062Z,10.23
2023-03-01T01:36:22.387Z,10.93
2023-03-01T01:38:50.578Z,11.00
2023-03-01T01:41:18.551Z,11.38
2023-03-01T01:43:49.454Z,11.70
2023-03-01T01:46:25.806Z,12.68
2023-03-01T01:48:58.194Z,12.82
2023-03-01T01:51:29.853Z,12.70
2023-03-01T01:54:02.988Z,13.00
2023-03-01T01:56:31.834Z,11.30
2023-03-01T01:59:01.303Z,12.65
2023-03-01T02:01:29.369Z,12.80
2023-03-01T02:03:57.809Z,13.52
2023-03-01T02:06:31.552Z,12.75
2023-03-01T02:09:03.015Z,12.75
2023-03-01T02:11:33.294Z,11.77
2023-03-01T02:14:02.523Z,12.50
2023-03-01T02:16:32.234Z,12.02
2023-03-01T02:21:43.996Z,12.02
2023-03-01T02:24:25.904Z,12.32
2023-03-01T02:26:58.148Z,10.30
2023-03-01T02:29:29.276Z,12.25
2023-03-01T02:32:00.284Z,10.88
2023-03-01T02:34:30.155Z,11.55
2023-03-01T02:37:01.985Z,11.43
2023-03-01T02:39:35.058Z,10.90
2023-03-01T02:42:05.987Z,10.85
2023-03-01T02:44:35.619Z,11.48
2023-03-01T02:47:05.498Z,9.88
2023-03-01T02:49:36.268Z,11.10
2023-03-01T02:52:18.558Z,10.40
2023-03-01T02:54:52.161Z,11.50
2023-03-01T02:57:20.862Z,10.18
2023-03-01T02:59:53.417Z,11.20
2023-03-01T03:02:36.766Z,11.07
2023-03-01T03:05:11.407Z,10.57
2023-03-01T03:07:41.448Z,11.88
2023-03-01T03:10:12.216Z,11.25
2023-03-01T03:12:41.408Z,11.80
2023-03-01T03:15:13.586Z,10.88
2023-03-01T03:17:45.281Z,11.48
2023-03-01T03:20:19.838Z,10.85
2023-03-01T03:22:49.121Z,12.45
2023-03-01T03:25:17.221Z,9.83
2023-03-01T03:27:46.820Z,11.98
2023-03-01T03:30:19.110Z,10.95
2023-03-01T03:32:53.204Z,11.77
2023-03-01T03:35:22.623Z,11.98
2023-03-01T03:38:07.509Z,11.93
2023-03-01T03:40:37.751Z,12.20
2023-03-01T03:43:07.945Z,12.80
2023-03-01T03:45:37.351Z,12.43
2023-03-01T03:48:07.656Z,12.85
2023-03-01T03:50:35.629Z,13.20
2023-03-01T03:53:05.072Z,12.35
2023-03-01T03:55:34.882Z,12.43
2023-03-01T03:58:07.798Z,12.93
2023-03-01T04:00:39.067Z,13.05
2023-03-01T04:03:07.673Z,12.63
2023-03-01T04:05:35.573Z,13.10
2023-03-01T04:08:03.462Z,13.40
2023-03-01T04:10:32.989Z,12.68
2023-03-01T04:13:00.884Z,13.02
2023-03-01T04:15:29.537Z,12.27
2023-03-01T04:18:00.032Z,11.80
2023-03-01T04:20:31.109Z,12.15
2023-03-01T04:23:01.059Z,12.55
2023-03-01T04:25:29.105Z,12.95
2023-03-01T04:27:59.390Z,12.20
2023-03-01T04:30:27.136Z,12.32
2023-03-01T04:32:54.961Z,12.13
2023-03-01T04:35:24.713Z,13.30
2023-03-01T04:37:52.536Z,13.75
2023-03-01T04:40:22.242Z,12.73
2023-03-01T04:42:50.100Z,15.02
2023-03-01T04:45:18.166Z,14.30
2023-03-01T04:47:47.641Z,14.18
2023-03-01T04:50:17.721Z,15.23
2023-03-01T04:55:15.524Z,15.17
2023-03-01T04:57:43.302Z,14.52
2023-03-01T05:00:22.084Z,15.98
2023-03-01T05:02:54.284Z,15.18
2023-03-01T05:05:27.870Z,14.73
2023-03-01T05:08:01.201Z,14.88
2023-03-01T05:10:31.078Z,14.95
2023-03-01T05:12:59.431Z,14.75
2023-03-01T05:15:28.783Z,13.85
2023-03-01T05:18:01.151Z,14.77
2023-03-01T05:20:29.712Z,15.05
2023-03-01T05:23:00.692Z,14.65
2023-03-01T05:25:33.999Z,15.82
2023-03-01T05:28:05.177Z,13.93
2023-03-01T05:30:33.713Z,15.25
2023-03-01T05:33:02.062Z,14.68
2023-03-01T05:35:33.572Z,16.02
2023-03-01T05:38:02.802Z,15.48
2023-03-01T05:40:30.625Z,17.67
2023-03-01T05:42:59.372Z,17.40
2023-03-01T05:45:28.952Z,15.48
2023-03-01T05:47:56.785Z,19.55
2023-03-01T05:50:27.049Z,17.35
2023-03-01T05:53:01.216Z,15.20
2023-03-01T05:55:31.942Z,15.23
2023-03-01T05:58:01.856Z,15.18
2023-03-01T06:00:31.327Z,14.82
2023-03-01T06:03:00.585Z,14.18
2023-03-01T06:05:29.656Z,15.05
2023-03-01T06:08:01.206Z,14.00
2023-03-01T06:10:31.157Z,15.82
2023-03-01T06:12:59.782Z,15.38
2023-03-01T06:15:27.865Z,15.15
2023-03-01T06:17:59.696Z,13.57
2023-03-01T06:20:30.151Z,24.75
2023-03-01T06:25:28.268Z,15.68
2023-03-01T06:30:27.671Z,15.27
2023-03-01T06:33:01.767Z,15.75
2023-03-01T06:35:31.548Z,15.93
2023-03-01T06:38:01.258Z,15.85
2023-03-01T06:40:29.908Z,16.02
2023-03-01T06:43:01.859Z,16.42
2023-03-01T06:45:29.774Z,15.75
2023-03-01T06:48:05.213Z,17.98
2023-03-01T06:50:33.199Z,20.83
2023-03-01T06:53:01.317Z,22.48
2023-03-01T06:55:29.117Z,21.60
2023-03-01T06:57:58.051Z,20.25
2023-03-01T07:00:28.992Z,19.15
2023-03-01T07:03:00.115Z,17.60
2023-03-01T07:05:28.533Z,16.73
2023-03-01T07:07:57.216Z,17.27
2023-03-01T07:10:25.236Z,25.77
2023-03-01T07:12:56.659Z,23.17
2023-03-01T07:15:24.531Z,20.75
2023-03-01T07:17:53.930Z,23.23
2023-03-01T07:20:25.399Z,17.38
2023-03-01T07:22:53.497Z,19.80
2023-03-01T07:25:21.277Z,21.75
2023-03-01T07:27:52.186Z,21.33
2023-03-01T07:30:20.760Z,21.88
2023-03-01T07:32:49.027Z,21.35
2023-03-01T07:35:18.359Z,22.48
2023-03-01T07:37:46.181Z,20.05
2023-03-01T07:40:15.107Z,23.08
2023-03-01T07:42:42.948Z,27.58
2023-03-01T07:45:11.961Z,27.52
2023-03-01T07:47:39.710Z,26.38
2023-03-01T07:50:08.296Z,24.08
2023-03-01T07:52:37.617Z,26.33
2023-03-01T07:55:06.009Z,25.73
2023-03-01T07:57:33.775Z,27.98
2023-03-01T08:00:01.686Z,28.90
2023-03-01T08:02:41.380Z,26.63
2023-03-01T08:05:09.931Z,29.05
2023-03-01T08:07:39.160Z,27.60
2023-03-01T08:10:08.091Z,27.07
2023-03-01T08:12:35.914Z,25.60
2023-03-01T08:15:03.721Z,27.42
2023-03-01T08:17:31.474Z,23.33
2023-03-01T08:19:59.296Z,24.48
2023-03-01T08:22:28.585Z,24.67
2023-03-01T08:24:58.849Z,26.90
2023-03-01T08:27:26.692Z,24.48
2023-03-01T08:29:54.503Z,22.42
2023-03-01T08:32:22.538Z,19.77
2023-03-01T08:34:50.640Z,18.67
2023-03-01T08:37:18.397Z,18.65
2023-03-01T08:39:46.562Z,17.55
2023-03-01T08:42:15.682Z,17.77
2023-03-01T08:44:45.477Z,17.70
2023-03-01T08:47:13.878Z,16.92
2023-03-01T08:49:41.800Z,16.95
2023-03-01T08:52:09.568Z,16.30
2023-03-01T08:54:37.609Z,15.98
2023-03-01T08:57:05.560Z,16.17
2023-03-01T08:59:38.205Z,15.75
2023-03-01T09:02:06.751Z,15.38
2023-03-01T09:04:34.859Z,14.98
2023-03-01T09:07:02.852Z,16.95
2023-03-01T09:09:30.620Z,13.90
2023-03-01T09:11:58.438Z,13.50
2023-03-01T09:14:26.284Z,13.88
2023-03-01T09:16:55.562Z,13.90
2023-03-01T09:19:25.725Z,13.80
2023-03-01T09:21:55.005Z,14.25
2023-03-01T09:24:25.499Z,13.23
2023-03-01T09:26:56.586Z,12.23
2023-03-01T09:29:25.132Z,13.98
2023-03-01T09:31:55.949Z,11.85
2023-03-01T09:34:25.312Z,12.32
2023-03-01T09:36:53.113Z,12.60
2023-03-01T09:39:21.501Z,11.55
2023-03-01T09:41:56.140Z,11.80
2023-03-01T09:44:32.243Z,11.98
2023-03-01T09:47:01.200Z,11.35
2023-03-01T09:49:32.575Z,10.15
2023-03-01T09:52:05.777Z,8.98
2023-03-01T09:54:33.777Z,10.00
2023-03-01T09:57:21.327Z,13.43
2023-03-01T10:00:05.538Z,11.60
2023-03-01T10:02:41.192Z,8.48
2023-03-01T10:05:27.226Z,8.02
2023-03-01T10:08:04.546Z,9.02
2023-03-01T10:10:36.660Z,9.15
2023-03-01T10:13:12.824Z,8.80
2023-03-01T10:15:46.074Z,8.18
2023-03-01T10:18:18.702Z,7.40
2023-03-01T10:20:54.354Z,8.35
2023-03-01T10:23:22.191Z,7.10
2023-03-01T10:26:05.372Z,7.68
2023-03-01T10:28:44.552Z,13.85
2023-03-01T10:31:16.075Z,9.00
2023-03-01T10:33:44.120Z,7.72
2023-03-01T10:36:13.404Z,7.63
2023-03-01T10:38:53.290Z,8.00
2023-03-01T10:41:21.511Z,7.15
2023-03-01T10:43:52.550Z,6.70
2023-03-01T10:46:29.049Z,13.30
2023-03-01T10:49:16.061Z,7.40
2023-03-01T10:51:47.707Z,7.60
2023-03-01T10:54:20.798Z,16.20
2023-03-01T10:56:51.674Z,12.18
2023-03-01T10:59:29.257Z,16.88
2023-03-01T11:02:23.579Z,11.30
2023-03-01T11:05:01.187Z,9.60
2023-03-01T11:07:31.131Z,12.85
2023-03-01T11:09:59.082Z,9.82
2023-03-01T11:12:29.829Z,7.13
2023-03-01T11:14:57.961Z,15.07
2023-03-01T11:17:30.011Z,8.20
2023-03-01T11:20:18.230Z,7.50
2023-03-01T11:22:51.876Z,13.75
2023-03-01T11:25:25.369Z,21.05
2023-03-01T11:27:55.484Z,8.55
2023-03-01T11:30:28.078Z,8.13
2023-03-01T11:33:07.671Z,11.18
2023-03-01T11:35:39.450Z,11.35
2023-03-01T11:38:20.589Z,9.63
2023-03-01T11:40:56.048Z,7.10
2023-03-01T11:43:31.604Z,9.13
2023-03-01T11:46:24.352Z,8.90
2023-03-01T11:49:00.873Z,7.45
2023-03-01T11:51:43.323Z,7.00
2023-03-01T11:54:40.488Z,7.10
2023-03-01T11:57:16.814Z,6.93
2023-03-01T12:00:02.027Z,5.95
2023-03-01T12:02:49.309Z,6.97
2023-03-01T12:06:04.400Z,6.90
2023-03-01T12:08:37.962Z,6.55
2023-03-01T12:11:22.302Z,7.30
2023-03-01T12:14:22.816Z,7.55
2023-03-01T12:17:08.294Z,7.68
2023-03-01T12:19:48.563Z,8.50
2023-03-01T12:22:31.189Z,8.25
2023-03-01T12:25:27.793Z,7.72
2023-03-01T12:28:34.313Z,7.18
2023-03-01T12:31:32.749Z,8.57
2023-03-01T12:34:10.405Z,7.72
2023-03-01T12:36:52.334Z,8.07
2023-03-01T12:39:37.081Z,7.78
2023-03-01T12:42:12.800Z,7.10
2023-03-01T12:44:56.493Z,7.10
2023-03-01T12:47:40.450Z,7.90
2023-03-01T12:50:19.182Z,7.53
2023-03-01T12:52:51.612Z,9.60
2023-03-01T12:55:31.030Z,7.90
2023-03-01T12:58:12.171Z,8.23
2023-03-01T13:00:47.541Z,7.22
2023-03-01T13:03:27.753Z,8.02
2023-03-01T13:06:10.672Z,36.10
2023-03-01T13:08:44.616Z,8.95
2023-03-01T13:11:19.842Z,7.75
2023-03-01T13:13:49.808Z,8.48
2023-03-01T13:16:43.893Z,6.55
2023-03-01T13:19:19.452Z,10.15
2023-03-01T13:21:51.045Z,9.57
2023-03-01T13:24:31.455Z,16.30
2023-03-01T13:27:13.588Z,9.65
2023-03-01T13:29:49.535Z,6.45
2023-03-01T13:32:28.845Z,7.50
2023-03-01T13:35:04.524Z,7.20
2023-03-01T13:37:37.249Z,7.40
2023-03-01T13:40:38.451Z,7.22
2023-03-01T13:43:31.362Z,14.15
2023-03-01T13:46:00.424Z,7.65
2023-03-01T13:48:31.450Z,7.65
2023-03-01T13:51:02.781Z,10.32
2023-03-01T13:53:37.631Z,14.07
2023-03-01T13:56:11.450Z,12.50
2023-03-01T13:58:51.828Z,11.88
2023-03-01T14:03:52.287Z,13.20
2023-03-01T14:06:23.798Z,9.95
2023-03-01T14:09:02.257Z,8.25
2023-03-01T14:11:59.564Z,11.43
2023-03-01T14:14:40.680Z,12.25
2023-03-01T14:17:25.012Z,7.38
2023-03-01T14:20:00.594Z,7.70
2023-03-01T14:22:30.393Z,7.35
2023-03-01T14:25:01.894Z,8.65
2023-03-01T14:27:35.458Z,6.55
2023-03-01T14:30:05.762Z,7.55
2023-03-01T14:35:02.428Z,6.68
2023-03-01T14:37:32.239Z,6.00
2023-03-01T14:40:03.846Z,5.82
2023-03-01T14:42:36.828Z,6.18
2023-03-01T14:45:09.491Z,5.75
2023-03-01T14:47:40.866Z,6.00
2023-03-01T14:50:23.415Z,6.97
2023-03-01T14:52:54.051Z,6.55
2023-03-01T14:55:28.935Z,6.00
2023-03-01T14:57:57.576Z,5.70
2023-03-01T15:00:28.621Z,5.45
2023-03-01T15:02:58.430Z,5.90
2023-03-01T15:05:31.042Z,6.45
2023-03-01T15:07:59.943Z,5.55
2023-03-01T15:10:31.274Z,6.07
2023-03-01T15:13:12.937Z,7.50
2023-03-01T15:15:44.833Z,5.05
2023-03-01T15:18:21.571Z,5.40
2023-03-01T15:20:50.873Z,5.60
2023-03-01T15:23:25.212Z,6.70
2023-03-01T15:25:58.451Z,5.50
2023-03-01T15:28:29.460Z,6.07
2023-03-01T15:31:00.914Z,6.43
2023-03-01T15:33:34.000Z,6.78
2023-03-01T15:36:03.997Z,14.10
2023-03-01T15:38:35.490Z,7.20
2023-03-01T15:41:07.245Z,13.38
2023-03-01T15:43:44.779Z,15.85
2023-03-01T15:46:33.440Z,19.38
2023-03-01T15:49:04.318Z,9.45
2023-03-01T15:51:35.718Z,7.38
2023-03-01T15:54:07.378Z,5.40
2023-03-01T15:56:36.854Z,6.45
2023-03-01T15:59:05.688Z,6.20
2023-03-01T16:01:35.198Z,7.43
2023-03-01T16:04:03.293Z,7.53
2023-03-01T16:06:31.462Z,6.07
2023-03-01T16:08:59.528Z,14.73
2023-03-01T16:11:27.667Z,8.82
2023-03-01T16:13:57.425Z,16.50
2023-03-01T16:16:26.021Z,10.02
2023-03-01T16:18:55.643Z,8.32
2023-03-01T16:21:25.725Z,10.57
2023-03-01T16:23:54.695Z,9.98
2023-03-01T16:26:22.807Z,11.57
2023-03-01T16:28:50.725Z,8.55
2023-03-01T16:31:21.872Z,7.63
2023-03-01T16:33:52.565Z,12.07
2023-03-01T16:36:24.473Z,12.20
2023-03-01T16:38:53.089Z,9.20
2023-03-01T16:41:24.208Z,6.82
2023-03-01T16:43:52.605Z,24.13
2023-03-01T16:46:24.494Z,27.70
2023-03-01T16:48:53.830Z,20.58
2023-03-01T16:51:23.035Z,12.03
2023-03-01T16:53:52.057Z,8.65
2023-03-01T16:56:20.914Z,19.58
2023-03-01T16:58:49.073Z,14.18
2023-03-01T17:01:18.528Z,16.67
2023-03-01T17:03:49.649Z,17.35
2023-03-01T17:06:21.234Z,29.27
2023-03-01T17:08:49.127Z,18.85
2023-03-01T17:11:19.551Z,18.38
2023-03-01T17:13:48.683Z,18.33
2023-03-01T17:16:18.680Z,13.73
2023-03-01T17:18:48.990Z,10.65
2023-03-01T17:21:17.414Z,7.88
2023-03-01T17:23:46.828Z,11.80
2023-03-01T17:26:15.051Z,14.37
2023-03-01T17:28:43.820Z,10.68
2023-03-01T17:31:11.750Z,12.77
2023-03-01T17:33:40.653Z,11.60
2023-03-01T17:36:10.033Z,11.13
2023-03-01T17:38:38.361Z,7.53
2023-03-01T17:41:06.473Z,10.57
2023-03-01T17:43:35.523Z,21.88
2023-03-01T17:46:03.706Z,23.27
2023-03-01T17:48:31.826Z,24.30
2023-03-01T17:50:59.678Z,19.67
2023-03-01T17:53:30.015Z,17.58
2023-03-01T17:56:03.038Z,16.23
2023-03-01T17:58:31.471Z,14.48
2023-03-01T18:01:09.134Z,13.90
2023-03-01T18:03:37.317Z,11.80
2023-03-01T18:06:12.217Z,16.60
2023-03-01T18:08:41.603Z,13.18
2023-03-01T18:11:09.816Z,15.47
2023-03-01T18:13:38.309Z,12.73
2023-03-01T18:16:07.685Z,12.65
2023-03-01T18:18:36.063Z,11.40
2023-03-01T18:21:05.324Z,11.45
2023-03-01T18:23:34.799Z,12.03
2023-03-01T18:26:06.732Z,12.75
2023-03-01T18:28:35.171Z,14.63
2023-03-01T18:31:05.943Z,15.63
2023-03-01T18:33:33.932Z,21.02
2023-03-01T18:36:01.942Z,21.27
2023-03-01T18:38:30.975Z,20.75
2023-03-01T18:40:58.830Z,19.88
2023-03-01T18:43:29.242Z,21.52
2023-03-01T18:45:58.546Z,20.75
2023-03-01T18:48:27.235Z,15.63
2023-03-01T18:50:55.227Z,14.57
2023-03-01T18:53:23.120Z,13.93
2023-03-01T18:55:51.130Z,13.75
2023-03-01T18:58:18.998Z,13.23
2023-03-01T19:00:48.555Z,13.60
2023-03-01T19:03:16.376Z,14.30
2023-03-01T19:05:44.340Z,13.43
2023-03-01T19:08:12.293Z,16.20
2023-03-01T19:10:40.182Z,14.88
2023-03-01T19:13:08.142Z,15.93
2023-03-01T19:15:36.164Z,14.80
2023-03-01T19:18:06.078Z,14.27
2023-03-01T19:20:34.049Z,13.80
2023-03-01T19:23:01.827Z,14.35
2023-03-01T19:25:29.728Z,12.20
2023-03-01T19:27:57.658Z,12.60
2023-03-01T19:30:27.186Z,11.40
2023-03-01T19:32:55.692Z,9.50
2023-03-01T19:35:24.971Z,9.32
2023-03-01T19:37:52.949Z,10.63
2023-03-01T19:40:20.859Z,10.55
2023-03-01T19:42:48.766Z,10.32
2023-03-01T19:45:22.410Z,14.52
2023-03-01T19:47:53.292Z,21.10
2023-03-01T19:50:21.169Z,21.52
2023-03-01T19:52:50.630Z,21.45
2023-03-01T19:55:19.158Z,23.75
2023-03-01T19:57:47.157Z,24.85
2023-03-01T20:00:16.825Z,23.55
2023-03-01T20:02:44.983Z,24.23
2023-03-01T20:05:13.069Z,17.90
2023-03-01T20:07:40.929Z,19.13
2023-03-01T20:10:11.890Z,17.48
2023-03-01T20:12:39.699Z,24.52
2023-03-01T20:15:08.726Z,21.48
2023-03-01T20:17:36.616Z,22.55
2023-03-01T20:20:04.801Z,21.30
2023-03-01T20:22:32.647Z,16.58
2023-03-01T20:25:00.669Z,19.20
2023-03-01T20:27:29.900Z,19.63
2023-03-01T20:29:57.804Z,28.33
2023-03-01T20:32:25.808Z,25.23
2023-03-01T20:34:55.796Z,26.08
2023-03-01T20:37:23.800Z,24.50
2023-03-01T20:39:52.027Z,26.02
2023-03-01T20:42:19.852Z,21.42
2023-03-01T20:44:49.319Z,19.02
2023-03-01T20:47:20.325Z,15.18
2023-03-01T20:49:48.284Z,17.83
2023-03-01T20:52:16.117Z,16.27
2023-03-01T20:54:43.972Z,14.82
2023-03-01T20:57:12.148Z,12.52
2023-03-01T20:59:39.995Z,11.82
2023-03-01T21:02:11.300Z,11.60
2023-03-01T21:04:39.425Z,11.02
2023-03-01T21:07:07.281Z,9.93
2023-03-01T21:09:35.250Z,10.30
2023-03-01T21:12:04.401Z,12.20
2023-03-01T21:14:42.180Z,12.98
2023-03-01T21:17:13.994Z,12.02
2023-03-01T21:19:43.904Z,11.65
2023-03-01T21:22:12.484Z,11.57
2023-03-01T21:24:40.346Z,12.27
2023-03-01T21:27:08.569Z,11.90
2023-03-01T21:29:38.423Z,10.95
2023-03-01T21:32:07.465Z,12.05
2023-03-01T21:34:37.754Z,10.48
2023-03-01T21:39:34.400Z,13.52
2023-03-01T21:42:04.260Z,16.63
2023-03-01T21:44:33.409Z,17.00
2023-03-01T21:47:01.563Z,17.73
2023-03-01T21:49:29.636Z,19.48
2023-03-01T21:51:58.956Z,19.65
2023-03-01T21:54:27.138Z,20.17
2023-03-01T21:56:55.282Z,17.88
2023-03-01T21:59:25.068Z,16.20
2023-03-01T22:01:53.594Z,12.68
2023-03-01T22:04:24.526Z,12.05
2023-03-01T22:06:54.486Z,11.55
2023-03-01T22:09:25.045Z,10.88
2023-03-01T22:11:58.415Z,10.77
2023-03-01T22:14:27.462Z,11.15
2023-03-01T22:16:55.878Z,9.40
2023-03-01T22:19:23.864Z,12.50
2023-03-01T22:21:53.322Z,16.55
2023-03-01T22:24:25.165Z,13.00
2023-03-01T22:26:54.405Z,11.70
2023-03-01T22:29:24.614Z,12.80
2023-03-01T22:34:21.284Z,10.65
2023-03-01T22:36:49.627Z,13.23
2023-03-01T22:39:20.636Z,25.25
2023-03-01T22:41:51.083Z,22.48
2023-03-01T22:44:21.635Z,21.10
2023-03-01T22:46:49.926Z,22.05
2023-03-01T22:49:19.175Z,19.58
2023-03-01T22:51:48.186Z,20.83
2023-03-01T22:54:17.682Z,19.67
2023-03-01T22:56:46.846Z,19.55
2023-03-01T22:59:19.182Z,19.53
2023-03-01T23:01:48.290Z,19.10
2023-03-01T23:04:16.365Z,18.77
2023-03-01T23:06:51.747Z,19.65
2023-03-01T23:09:21.778Z,20.52
2023-03-01T23:11:50.583Z,18.98
2023-03-01T23:14:21.147Z,20.35
2023-03-01T23:16:50.071Z,19.88
2023-03-01T23:19:18.353Z,19.52
2023-03-01T23:21:50.581Z,18.42
2023-03-01T23:24:20.441Z,19.58
2023-03-01T23:26:53.204Z,20.48
2023-03-01T23:29:23.003Z,20.55
2023-03-01T23:31:50.904Z,15.82
2023-03-01T23:34:19.241Z,13.20
2023-03-01T23:36:47.111Z,12.52
2023-03-01T23:39:15.618Z,11.40
2023-03-01T23:41:43.566Z,10.57
2023-03-01T23:44:16.122Z,12.82
2023-03-01T23:46:46.850Z,13.23
2023-03-01T23:49:16.674Z,13.48
2023-03-01T23:51:47.747Z,15.40
2023-03-01T23:54:18.203Z,16.67
2023-03-01T23:56:47.173Z,16.80
2023-03-01T23:59:16.731Z,16.73
